Time;durP1;ratioP1;P1;durP2;ratioP2;P2;SDS_P1;SDS_P2;PMS_P1;PMS_P2;Temp;Humidity;BMP_temperature;BMP_pressure;BME280_temperature;BME280_humidity;BME280_pressure;Samples;Min_cycle;Max_cycle;Signal;HPM_P1;HPM_P2
2022/03/29 00:00:59;;;;;;;19.60;13.05;;;;;;;;;;4956569;28;20035;-90
2022/03/29 00:03:25;;;;;;;18.08;12.57;;;;;;;;;;4964259;28;20059;-93
2022/03/29 00:05:50;;;;;;;18.25;12.57;;;;;;;;;;4953235;28;20063;-89
2022/03/29 00:08:16;;;;;;;20.75;13.30;;;;;;;;;;4964196;28;20078;-91
2022/03/29 00:10:41;;;;;;;19.75;12.85;;;;;;;;;;4967030;28;20105;-87
2022/03/29 00:13:07;;;;;;;17.88;12.80;;;;;;;;;;4954911;28;20071;-87
2022/03/29 00:15:33;;;;;;;18.15;12.80;;;;;;;;;;4951349;28;20454;-90
2022/03/29 00:17:58;;;;;;;18.15;12.20;;;;;;;;;;4948050;28;20046;-88
2022/03/29 00:20:24;;;;;;;19.05;12.40;;;;;;;;;;4950168;28;20925;-89
2022/03/29 00:22:50;;;;;;;19.17;12.73;;;;;;;;;;4948066;28;20494;-90
2022/03/29 00:25:16;;;;;;;19.60;12.95;;;;;;;;;;4965754;28;20047;-89
2022/03/29 00:27:41;;;;;;;16.35;11.95;;;;;;;;;;4960704;28;20042;-88
2022/03/29 00:30:09;;;;;;;18.73;12.38;;;;;;;;;;4948635;28;20110;-90
2022/03/29 00:32:34;;;;;;;18.95;12.93;;;;;;;;;;4950443;28;20041;-93
2022/03/29 00:35:01;;;;;;;20.83;13.23;;;;;;;;;;4956987;28;20578;-89
2022/03/29 00:37:26;;;;;;;19.80;12.10;;;;;;;;;;4942799;28;20125;-93
2022/03/29 00:39:52;;;;;;;18.48;12.25;;;;;;;;;;4958763;28;20796;-91
2022/03/29 00:42:17;;;;;;;18.08;12.98;;;;;;;;;;4962188;28;20525;-88
2022/03/29 00:44:42;;;;;;;21.15;13.05;;;;;;;;;;4950476;28;20035;-90
2022/03/29 00:47:08;;;;;;;19.42;12.73;;;;;;;;;;4948792;28;20039;-91
2022/03/29 00:49:34;;;;;;;18.52;12.95;;;;;;;;;;4942405;28;20051;-91
2022/03/29 00:52:03;;;;;;;19.63;13.07;;;;;;;;;;4948285;28;20039;-88
2022/03/29 00:54:31;;;;;;;21.30;13.55;;;;;;;;;;4949363;28;20074;-91
2022/03/29 00:56:57;;;;;;;18.23;12.95;;;;;;;;;;4962093;28;20966;-91
2022/03/29 00:59:24;;;;;;;18.17;12.80;;;;;;;;;;4949436;28;20620;-92
2022/03/29 01:01:52;;;;;;;19.25;13.07;;;;;;;;;;4947937;28;20038;-93
2022/03/29 01:04:18;;;;;;;19.95;13.35;;;;;;;;;;4956180;28;20088;-90
2022/03/29 01:06:44;;;;;;;20.13;12.77;;;;;;;;;;4949016;28;20042;-92
2022/03/29 01:09:12;;;;;;;19.27;12.98;;;;;;;;;;4948868;28;20114;-94
2022/03/29 01:11:38;;;;;;;19.13;12.73;;;;;;;;;;4961454;28;20039;-93
2022/03/29 01:14:04;;;;;;;18.92;12.85;;;;;;;;;;4968777;28;20656;-91
2022/03/29 01:19:18;;;;;;;19.30;13.80;;;;;;;;;;4962142;28;20082;-89
2022/03/29 01:21:53;;;;;;;20.75;13.75;;;;;;;;;;4947580;28;20582;-94
2022/03/29 01:24:18;;;;;;;20.33;13.15;;;;;;;;;;4965402;28;20035;-86
2022/03/29 01:26:44;;;;;;;19.13;13.15;;;;;;;;;;4947518;28;20401;-89
2022/03/29 01:29:10;;;;;;;21.42;13.70;;;;;;;;;;4950139;28;20475;-92
2022/03/29 01:31:36;;;;;;;21.15;13.90;;;;;;;;;;4951620;28;20058;-93
2022/03/29 01:34:01;;;;;;;22.08;14.50;;;;;;;;;;4972670;28;20041;-89
2022/03/29 01:36:27;;;;;;;19.80;13.68;;;;;;;;;;4969117;28;20042;-91
2022/03/29 01:38:53;;;;;;;20.98;13.65;;;;;;;;;;4953941;28;20034;-90
2022/03/29 01:41:18;;;;;;;21.25;14.38;;;;;;;;;;4965197;28;20049;-90
2022/03/29 01:43:43;;;;;;;21.02;14.43;;;;;;;;;;4954086;28;20039;-89
2022/03/29 01:46:12;;;;;;;19.92;13.80;;;;;;;;;;4951612;28;20039;-91
2022/03/29 01:48:37;;;;;;;20.77;14.27;;;;;;;;;;4942630;28;20030;-91
2022/03/29 01:51:03;;;;;;;21.17;13.57;;;;;;;;;;4960729;28;20035;-91
2022/03/29 01:53:28;;;;;;;23.25;14.60;;;;;;;;;;4956986;28;20038;-88
2022/03/29 01:55:58;;;;;;;21.90;14.50;;;;;;;;;;4965534;28;20086;-91
2022/03/29 01:58:29;;;;;;;22.45;14.73;;;;;;;;;;4960045;28;20054;-90
2022/03/29 02:00:55;;;;;;;20.77;14.63;;;;;;;;;;4947613;28;20042;-92
2022/03/29 02:03:23;;;;;;;24.15;15.15;;;;;;;;;;4962138;28;20418;-87
2022/03/29 02:05:49;;;;;;;23.30;15.20;;;;;;;;;;4961125;28;20490;-88
2022/03/29 02:08:14;;;;;;;21.45;15.07;;;;;;;;;;4949537;28;20122;-91
2022/03/29 02:10:40;;;;;;;24.45;16.88;;;;;;;;;;4961612;28;20538;-89
2022/03/29 02:13:11;;;;;;;22.88;15.90;;;;;;;;;;4951539;28;20078;-90
2022/03/29 02:15:40;;;;;;;26.30;16.27;;;;;;;;;;4951647;28;20049;-86
2022/03/29 02:18:06;;;;;;;27.63;17.15;;;;;;;;;;4960171;28;20050;-88
2022/03/29 02:20:32;;;;;;;23.98;16.35;;;;;;;;;;4953641;28;20094;-89
2022/03/29 02:23:08;;;;;;;24.48;16.35;;;;;;;;;;4958334;28;20049;-90
2022/03/29 02:25:34;;;;;;;22.80;16.17;;;;;;;;;;4973974;28;20042;-88
2022/03/29 02:28:00;;;;;;;24.92;16.60;;;;;;;;;;4963476;28;20031;-87
2022/03/29 02:30:25;;;;;;;22.58;15.88;;;;;;;;;;4972093;28;20049;-89
2022/03/29 02:32:53;;;;;;;24.70;17.40;;;;;;;;;;4973434;28;20046;-90
2022/03/29 02:35:22;;;;;;;24.85;16.67;;;;;;;;;;4959098;28;20039;-87
2022/03/29 02:37:47;;;;;;;26.83;17.15;;;;;;;;;;4953581;28;20038;-92
2022/03/29 02:40:13;;;;;;;22.95;15.95;;;;;;;;;;4950424;28;20047;-90
2022/03/29 02:42:51;;;;;;;25.13;16.88;;;;;;;;;;4952801;28;20062;-93
2022/03/29 02:45:18;;;;;;;27.20;16.63;;;;;;;;;;4984053;28;20042;-93
2022/03/29 02:47:49;;;;;;;25.35;17.30;;;;;;;;;;4970098;28;20034;-93
2022/03/29 02:50:15;;;;;;;22.88;16.00;;;;;;;;;;4957379;28;20043;-93
2022/03/29 02:52:52;;;;;;;27.35;17.65;;;;;;;;;;4971887;28;20519;-93
2022/03/29 02:55:18;;;;;;;27.27;17.00;;;;;;;;;;4954668;28;20053;-91
2022/03/29 02:57:44;;;;;;;24.98;17.65;;;;;;;;;;4968064;28;20561;-91
2022/03/29 03:00:12;;;;;;;24.98;17.02;;;;;;;;;;4969343;28;20162;-83
2022/03/29 03:02:38;;;;;;;27.92;18.02;;;;;;;;;;4952561;28;20614;-88
2022/03/29 03:05:03;;;;;;;24.50;17.15;;;;;;;;;;4951810;28;20055;-89
2022/03/29 03:07:29;;;;;;;25.52;17.60;;;;;;;;;;4967085;28;20039;-93
2022/03/29 03:09:55;;;;;;;24.13;17.50;;;;;;;;;;4967138;28;20105;-90
2022/03/29 03:12:21;;;;;;;25.55;17.55;;;;;;;;;;4950548;28;20043;-89
2022/03/29 03:14:48;;;;;;;25.15;16.90;;;;;;;;;;4966037;28;20038;-90
2022/03/29 03:17:13;;;;;;;23.73;17.42;;;;;;;;;;4964468;28;20077;-91
2022/03/29 03:19:38;;;;;;;27.88;17.08;;;;;;;;;;4958163;28;20125;-91
2022/03/29 03:22:04;;;;;;;24.65;17.15;;;;;;;;;;4964635;28;20826;-88
2022/03/29 03:24:29;;;;;;;26.67;17.58;;;;;;;;;;4956292;28;20035;-90
2022/03/29 03:26:54;;;;;;;25.85;17.70;;;;;;;;;;4963426;28;20035;-86
2022/03/29 03:29:20;;;;;;;22.10;16.35;;;;;;;;;;4953353;28;20075;-88
2022/03/29 03:31:45;;;;;;;25.60;17.83;;;;;;;;;;4948518;28;20050;-90
2022/03/29 03:34:10;;;;;;;26.30;17.30;;;;;;;;;;4961812;28;20046;-87
2022/03/29 03:36:35;;;;;;;26.13;18.00;;;;;;;;;;4951052;28;20035;-89
2022/03/29 03:39:01;;;;;;;27.98;17.80;;;;;;;;;;4960147;28;20030;-89
2022/03/29 03:41:26;;;;;;;23.80;17.17;;;;;;;;;;4959510;28;20047;-90
2022/03/29 03:43:54;;;;;;;27.27;18.27;;;;;;;;;;4952189;28;20146;-90
2022/03/29 03:46:19;;;;;;;26.73;18.08;;;;;;;;;;4964794;28;20050;-88
2022/03/29 03:48:45;;;;;;;26.23;17.88;;;;;;;;;;4952375;28;20106;-88
2022/03/29 03:51:10;;;;;;;26.00;17.77;;;;;;;;;;4961641;28;20114;-86
2022/03/29 03:53:35;;;;;;;27.35;18.42;;;;;;;;;;4951048;28;20502;-87
2022/03/29 03:56:00;;;;;;;26.98;18.13;;;;;;;;;;4947635;28;20038;-87
2022/03/29 03:58:28;;;;;;;26.73;18.25;;;;;;;;;;4967149;28;20038;-87
2022/03/29 04:00:54;;;;;;;30.38;18.63;;;;;;;;;;4944192;28;20043;-86
2022/03/29 04:03:19;;;;;;;27.48;18.23;;;;;;;;;;4948587;28;20054;-86
2022/03/29 04:05:44;;;;;;;27.40;18.50;;;;;;;;;;4962400;28;20110;-85
2022/03/29 04:08:10;;;;;;;27.88;18.17;;;;;;;;;;4949208;28;20094;-85
2022/03/29 04:10:35;;;;;;;25.23;18.35;;;;;;;;;;4950796;28;20062;-87
2022/03/29 04:13:01;;;;;;;26.45;18.23;;;;;;;;;;4963148;28;20035;-86
2022/03/29 04:15:26;;;;;;;26.75;18.10;;;;;;;;;;4964272;28;20039;-87
2022/03/29 04:17:52;;;;;;;27.40;18.20;;;;;;;;;;4948622;28;20474;-87
2022/03/29 04:20:17;;;;;;;26.80;18.27;;;;;;;;;;4965145;28;20035;-84
2022/03/29 04:22:42;;;;;;;25.20;17.77;;;;;;;;;;4978346;28;20035;-89
2022/03/29 04:25:08;;;;;;;27.20;17.98;;;;;;;;;;4947832;28;20066;-82
2022/03/29 04:27:33;;;;;;;26.45;17.85;;;;;;;;;;4961359;28;20501;-82
2022/03/29 04:29:59;;;;;;;26.92;17.95;;;;;;;;;;4948684;28;20031;-82
2022/03/29 04:32:24;;;;;;;28.25;18.20;;;;;;;;;;4954654;28;20852;-82
2022/03/29 04:34:49;;;;;;;31.45;18.83;;;;;;;;;;4960914;28;20407;-83
2022/03/29 04:37:15;;;;;;;27.30;18.30;;;;;;;;;;4965914;28;20039;-82
2022/03/29 04:39:40;;;;;;;30.00;19.98;;;;;;;;;;4962174;28;20061;-83
2022/03/29 04:42:06;;;;;;;26.88;18.50;;;;;;;;;;4947673;28;20125;-83
2022/03/29 04:44:34;;;;;;;28.38;18.63;;;;;;;;;;4960659;28;20031;-84
2022/03/29 04:46:59;;;;;;;;;;;;;;;;;;4950080;28;20038;-83
2022/03/29 04:49:24;;;;;;;32.87;19.07;;;;;;;;;;4958632;28;19969;-83
2022/03/29 04:51:50;;;;;;;30.63;17.77;;;;;;;;;;4962608;28;20070;-80
2022/03/29 04:54:16;;;;;;;31.27;18.80;;;;;;;;;;4948180;28;20467;-81
2022/03/29 04:56:42;;;;;;;30.27;19.80;;;;;;;;;;4960906;28;20136;-81
2022/03/29 04:59:07;;;;;;;28.20;18.90;;;;;;;;;;4960476;28;20038;-81
2022/03/29 05:01:32;;;;;;;27.65;18.60;;;;;;;;;;4959494;28;20073;-80
2022/03/29 05:03:58;;;;;;;28.23;18.70;;;;;;;;;;4959098;28;20057;-81
2022/03/29 05:06:23;;;;;;;28.23;18.80;;;;;;;;;;4948105;28;20034;-81
2022/03/29 05:08:48;;;;;;;26.20;17.67;;;;;;;;;;4944172;28;20043;-81
2022/03/29 05:11:14;;;;;;;30.08;18.70;;;;;;;;;;4948897;28;20094;-85
2022/03/29 05:13:39;;;;;;;29.83;17.70;;;;;;;;;;4949435;28;20039;-83
2022/03/29 05:16:05;;;;;;;24.88;17.00;;;;;;;;;;4952511;28;20046;-84
2022/03/29 05:18:30;;;;;;;29.58;18.40;;;;;;;;;;4947104;28;20050;-84
2022/03/29 05:20:55;;;;;;;27.73;18.33;;;;;;;;;;4961279;28;20038;-83
2022/03/29 05:23:22;;;;;;;28.73;18.40;;;;;;;;;;4948091;28;20046;-83
2022/03/29 05:25:48;;;;;;;26.50;18.63;;;;;;;;;;4947205;28;20034;-83
2022/03/29 05:28:13;;;;;;;28.45;18.67;;;;;;;;;;4948195;28;20145;-85
2022/03/29 05:30:38;;;;;;;28.98;18.25;;;;;;;;;;4944264;28;20514;-83
2022/03/29 05:33:04;;;;;;;28.88;18.55;;;;;;;;;;4945270;28;20058;-84
2022/03/29 05:35:30;;;;;;;28.27;18.25;;;;;;;;;;4955523;28;20032;-82
2022/03/29 05:37:57;;;;;;;29.60;18.13;;;;;;;;;;4963092;28;20053;-83
2022/03/29 05:40:23;;;;;;;34.47;18.35;;;;;;;;;;4958769;28;20457;-81
2022/03/29 05:42:52;;;;;;;31.63;17.90;;;;;;;;;;4963462;28;20049;-82
2022/03/29 05:45:17;;;;;;;35.53;18.35;;;;;;;;;;4958398;28;20078;-82
2022/03/29 05:50:29;;;;;;;29.80;18.85;;;;;;;;;;4960546;28;20685;-85
2022/03/29 05:52:56;;;;;;;31.48;19.02;;;;;;;;;;4945403;28;20455;-83
2022/03/29 05:55:22;;;;;;;34.38;19.85;;;;;;;;;;4944653;28;20049;-82
2022/03/29 05:57:49;;;;;;;30.73;18.20;;;;;;;;;;4944290;28;20043;-83
2022/03/29 06:00:15;;;;;;;29.77;18.98;;;;;;;;;;4944716;28;20091;-82
2022/03/29 06:02:42;;;;;;;29.58;17.77;;;;;;;;;;4959974;28;20035;-83
2022/03/29 06:05:09;;;;;;;32.65;19.80;;;;;;;;;;4962651;28;20043;-82
2022/03/29 06:07:34;;;;;;;32.40;19.38;;;;;;;;;;4964039;28;20038;-83
2022/03/29 06:09:59;;;;;;;30.27;19.17;;;;;;;;;;4947555;28;20035;-83
2022/03/29 06:12:25;;;;;;;35.15;19.92;;;;;;;;;;4959029;28;20095;-83
2022/03/29 06:14:51;;;;;;;37.05;20.60;;;;;;;;;;4954698;28;20058;-83
2022/03/29 06:17:17;;;;;;;32.22;18.35;;;;;;;;;;4960338;28;20484;-83
2022/03/29 06:19:43;;;;;;;33.28;19.25;;;;;;;;;;4960496;28;20078;-83
2022/03/29 06:22:09;;;;;;;33.20;18.98;;;;;;;;;;4954595;28;20046;-83
2022/03/29 06:24:34;;;;;;;31.80;18.42;;;;;;;;;;4960090;28;20035;-83
2022/03/29 06:26:59;;;;;;;34.22;19.27;;;;;;;;;;4943840;28;20487;-83
2022/03/29 06:29:25;;;;;;;35.15;19.73;;;;;;;;;;4942231;28;20039;-83
2022/03/29 06:31:51;;;;;;;30.58;18.88;;;;;;;;;;4962636;28;20047;-83
2022/03/29 06:34:16;;;;;;;34.75;19.15;;;;;;;;;;4946489;28;20055;-82
2022/03/29 06:36:42;;;;;;;32.22;18.83;;;;;;;;;;4944500;28;20466;-83
2022/03/29 06:39:08;;;;;;;33.47;18.88;;;;;;;;;;4945758;28;20178;-83
2022/03/29 06:41:34;;;;;;;32.00;18.67;;;;;;;;;;4947311;28;20662;-83
2022/03/29 06:44:00;;;;;;;32.58;18.92;;;;;;;;;;4943892;28;20030;-82
2022/03/29 06:46:25;;;;;;;31.67;17.98;;;;;;;;;;4945958;28;20490;-83
2022/03/29 06:48:50;;;;;;;32.70;19.27;;;;;;;;;;4950227;28;20116;-82
2022/03/29 06:51:16;;;;;;;32.50;18.80;;;;;;;;;;4947049;28;20083;-82
2022/03/29 06:53:42;;;;;;;31.75;18.33;;;;;;;;;;4949817;28;20904;-83
2022/03/29 06:56:08;;;;;;;28.95;17.88;;;;;;;;;;4966886;28;20042;-82
2022/03/29 06:58:34;;;;;;;33.28;17.73;;;;;;;;;;4945892;28;20382;-82
2022/03/29 07:00:59;;;;;;;30.63;18.33;;;;;;;;;;4964864;28;20039;-83
2022/03/29 07:03:25;;;;;;;31.13;18.15;;;;;;;;;;4960941;28;20402;-82
2022/03/29 07:05:50;;;;;;;28.35;16.90;;;;;;;;;;4965644;28;20062;-83
2022/03/29 07:08:18;;;;;;;33.05;18.25;;;;;;;;;;4961514;28;20043;-84
2022/03/29 07:13:28;;;;;;;29.70;17.75;;;;;;;;;;4963507;28;20473;-83
2022/03/29 07:15:53;;;;;;;31.73;17.50;;;;;;;;;;4949736;28;20079;-83
2022/03/29 07:18:19;;;;;;;28.27;15.95;;;;;;;;;;4945466;28;20039;-83
2022/03/29 07:20:45;;;;;;;27.90;16.38;;;;;;;;;;4948577;28;20126;-83
2022/03/29 07:23:10;;;;;;;27.52;15.45;;;;;;;;;;4950408;28;20158;-84
2022/03/29 07:25:37;;;;;;;29.90;16.08;;;;;;;;;;4963400;28;20035;-86
2022/03/29 07:28:02;;;;;;;26.92;15.30;;;;;;;;;;4948547;28;20069;-83
2022/03/29 07:30:29;;;;;;;23.77;14.13;;;;;;;;;;4959151;28;22565;-84
2022/03/29 07:32:57;;;;;;;24.80;14.90;;;;;;;;;;4949592;28;20035;-84
2022/03/29 07:35:24;;;;;;;27.88;15.02;;;;;;;;;;4949833;28;20082;-82
2022/03/29 07:37:50;;;;;;;24.13;14.23;;;;;;;;;;4950224;28;20062;-85
2022/03/29 07:40:21;;;;;;;24.00;12.85;;;;;;;;;;4947930;28;20030;-85
2022/03/29 07:42:46;;;;;;;25.75;13.18;;;;;;;;;;4961970;28;20059;-83
2022/03/29 07:45:12;;;;;;;22.23;13.07;;;;;;;;;;4957046;28;20982;-84
2022/03/29 07:47:38;;;;;;;24.65;13.45;;;;;;;;;;4962933;28;20043;-83
2022/03/29 07:50:07;;;;;;;23.42;13.05;;;;;;;;;;4960758;28;20051;-84
2022/03/29 07:52:37;;;;;;;18.85;11.85;;;;;;;;;;4966239;28;20117;-85
2022/03/29 07:55:04;;;;;;;23.60;12.93;;;;;;;;;;4950113;28;20085;-82
2022/03/29 07:57:29;;;;;;;23.95;12.68;;;;;;;;;;4951336;28;20122;-85
2022/03/29 07:59:54;;;;;;;24.33;12.55;;;;;;;;;;4963631;28;20103;-84
2022/03/29 08:02:20;;;;;;;23.58;12.43;;;;;;;;;;4946748;28;20786;-83
2022/03/29 08:04:45;;;;;;;21.08;12.80;;;;;;;;;;4955124;28;20055;-86
2022/03/29 08:07:11;;;;;;;25.17;12.88;;;;;;;;;;4948996;28;20066;-86
2022/03/29 08:09:36;;;;;;;23.50;12.80;;;;;;;;;;4950168;28;20202;-83
2022/03/29 08:12:02;;;;;;;22.08;12.27;;;;;;;;;;4951027;28;20061;-83
2022/03/29 08:14:27;;;;;;;23.85;12.25;;;;;;;;;;4948632;28;20886;-86
2022/03/29 08:16:55;;;;;;;23.83;13.55;;;;;;;;;;4940879;28;20041;-83
2022/03/29 08:19:21;;;;;;;19.38;12.57;;;;;;;;;;4963983;28;20410;-81
2022/03/29 08:21:52;;;;;;;22.90;12.95;;;;;;;;;;4961694;28;20049;-84
2022/03/29 08:24:24;;;;;;;23.95;12.40;;;;;;;;;;4946298;28;20035;-81
2022/03/29 08:26:53;;;;;;;24.38;12.57;;;;;;;;;;4957161;28;20035;-82
2022/03/29 08:29:21;;;;;;;21.88;13.00;;;;;;;;;;4949352;28;20075;-82
2022/03/29 08:31:47;;;;;;;;;;;;;;;;;;4965693;28;20035;-84
2022/03/29 08:34:13;;;;;;;23.00;12.50;;;;;;;;;;4966075;28;19993;-83
2022/03/29 08:36:39;;;;;;;18.75;11.60;;;;;;;;;;4942194;28;20132;-83
2022/03/29 08:39:08;;;;;;;23.38;14.75;;;;;;;;;;4943623;28;20613;-83
2022/03/29 08:41:42;;;;;;;26.35;15.07;;;;;;;;;;4978593;28;20038;-84
2022/03/29 08:44:07;;;;;;;23.10;15.20;;;;;;;;;;4945476;28;20109;-83
2022/03/29 08:46:35;;;;;;;22.88;14.98;;;;;;;;;;4960430;28;20055;-84
2022/03/29 08:49:01;;;;;;;22.80;14.45;;;;;;;;;;4958634;28;20030;-84
2022/03/29 08:51:27;;;;;;;21.08;14.32;;;;;;;;;;4947240;28;20035;-83
2022/03/29 08:53:52;;;;;;;22.98;14.63;;;;;;;;;;4948482;28;20051;-83
2022/03/29 08:56:18;;;;;;;23.95;14.00;;;;;;;;;;4959454;28;20072;-83
2022/03/29 08:58:43;;;;;;;18.98;12.77;;;;;;;;;;4960950;28;20042;-85
2022/03/29 09:01:11;;;;;;;22.02;13.00;;;;;;;;;;4948679;28;20046;-85
2022/03/29 09:03:37;;;;;;;21.27;12.32;;;;;;;;;;4947778;28;20441;-82
2022/03/29 09:06:07;;;;;;;20.00;12.52;;;;;;;;;;4960353;28;20054;-82
2022/03/29 09:08:47;;;;;;;17.80;11.70;;;;;;;;;;4947943;28;20042;-85
2022/03/29 09:11:14;;;;;;;19.75;12.30;;;;;;;;;;4960651;28;20034;-82
2022/03/29 09:13:40;;;;;;;20.52;12.38;;;;;;;;;;4955584;28;20114;-84
2022/03/29 09:16:09;;;;;;;17.98;11.50;;;;;;;;;;4961198;28;20042;-84
2022/03/29 09:18:35;;;;;;;17.08;12.05;;;;;;;;;;4947422;28;20544;-83
2022/03/29 09:21:12;;;;;;;19.48;12.00;;;;;;;;;;4962575;28;20035;-84
2022/03/29 09:23:38;;;;;;;20.42;13.00;;;;;;;;;;4943730;28;20062;-85
2022/03/29 09:26:04;;;;;;;22.83;13.10;;;;;;;;;;4943499;28;20560;-83
2022/03/29 09:28:34;;;;;;;18.15;12.20;;;;;;;;;;4961963;28;20035;-83
2022/03/29 09:30:59;;;;;;;17.35;12.65;;;;;;;;;;4960578;28;20043;-86
2022/03/29 09:33:37;;;;;;;17.15;12.25;;;;;;;;;;4944982;28;20418;-83
2022/03/29 09:36:08;;;;;;;21.80;14.00;;;;;;;;;;4964124;28;20043;-87
2022/03/29 09:38:39;;;;;;;17.65;13.18;;;;;;;;;;4960271;28;20039;-84
2022/03/29 09:41:22;;;;;;;19.23;12.80;;;;;;;;;;4944617;28;20066;-84
2022/03/29 09:44:21;;;;;;;20.85;11.98;;;;;;;;;;4958854;28;20046;-83
2022/03/29 09:47:04;;;;;;;19.20;11.88;;;;;;;;;;4958002;28;20027;-82
2022/03/29 09:49:30;;;;;;;18.55;13.18;;;;;;;;;;4964687;28;20034;-84
2022/03/29 09:52:11;;;;;;;18.90;12.77;;;;;;;;;;4947553;28;20130;-85
2022/03/29 09:54:39;;;;;;;17.60;12.48;;;;;;;;;;4960729;28;20067;-81
2022/03/29 09:57:04;;;;;;;18.85;11.80;;;;;;;;;;4943270;28;20035;-80
2022/03/29 09:59:33;;;;;;;18.17;11.88;;;;;;;;;;4962104;28;20034;-81
2022/03/29 10:01:59;;;;;;;17.45;12.02;;;;;;;;;;4946952;28;24566;-79
2022/03/29 10:04:28;;;;;;;17.85;12.13;;;;;;;;;;4962455;28;20529;-79
2022/03/29 10:06:56;;;;;;;18.10;11.80;;;;;;;;;;4946771;28;20030;-80
2022/03/29 10:09:30;;;;;;;16.73;11.88;;;;;;;;;;4959016;28;20032;-81
2022/03/29 10:12:04;;;;;;;18.20;10.10;;;;;;;;;;4960218;28;20043;-79
2022/03/29 10:14:31;;;;;;;14.60;9.70;;;;;;;;;;4958579;28;20119;-81
2022/03/29 10:16:58;;;;;;;15.88;10.40;;;;;;;;;;4954182;28;20053;-81
2022/03/29 10:19:24;;;;;;;16.38;11.23;;;;;;;;;;4945594;28;20065;-80
2022/03/29 10:21:53;;;;;;;16.98;11.27;;;;;;;;;;4959989;28;20509;-82
2022/03/29 10:24:19;;;;;;;16.55;11.43;;;;;;;;;;4945990;28;20102;-79
2022/03/29 10:26:47;;;;;;;18.15;10.90;;;;;;;;;;4966716;28;20027;-81
2022/03/29 10:29:12;;;;;;;17.23;10.50;;;;;;;;;;4962188;28;20050;-81
2022/03/29 10:31:41;;;;;;;16.20;11.40;;;;;;;;;;4951499;28;20418;-79
2022/03/29 10:34:17;;;;;;;18.60;11.25;;;;;;;;;;4948363;28;20051;-81
2022/03/29 10:37:03;;;;;;;17.65;12.27;;;;;;;;;;4963553;28;20054;-81
2022/03/29 10:39:52;;;;;;;20.83;11.48;;;;;;;;;;4958200;28;20042;-82
2022/03/29 10:42:38;;;;;;;18.98;12.00;;;;;;;;;;4966131;28;20106;-80
2022/03/29 10:45:14;;;;;;;17.35;11.52;;;;;;;;;;4950969;28;20042;-81
2022/03/29 10:47:42;;;;;;;19.60;11.83;;;;;;;;;;4962070;28;20372;-82
2022/03/29 10:50:10;;;;;;;15.15;11.02;;;;;;;;;;4952353;28;20081;-80
2022/03/29 10:52:48;;;;;;;15.80;9.95;;;;;;;;;;4962629;28;20525;-81
2022/03/29 10:55:32;;;;;;;15.10;10.30;;;;;;;;;;4962104;28;20043;-80
2022/03/29 10:58:08;;;;;;;15.48;9.95;;;;;;;;;;4966181;28;20031;-80
2022/03/29 11:00:35;;;;;;;17.42;10.70;;;;;;;;;;4947096;28;20038;-83
2022/03/29 11:03:10;;;;;;;14.98;10.18;;;;;;;;;;4967040;28;20038;-81
2022/03/29 11:06:03;;;;;;;13.50;8.98;;;;;;;;;;4961564;28;20264;-79
2022/03/29 11:08:29;;;;;;;13.95;8.63;;;;;;;;;;4978468;28;20453;-79
2022/03/29 11:10:55;;;;;;;11.70;7.72;;;;;;;;;;4947728;28;20051;-79
2022/03/29 11:13:34;;;;;;;13.27;8.20;;;;;;;;;;4950234;28;20130;-80
2022/03/29 11:16:02;;;;;;;13.60;9.05;;;;;;;;;;4972489;28;20855;-81
2022/03/29 11:18:30;;;;;;;16.20;9.43;;;;;;;;;;4949203;28;20041;-80
2022/03/29 11:21:02;;;;;;;12.43;8.82;;;;;;;;;;4972983;28;20066;-80
2022/03/29 11:23:37;;;;;;;11.23;8.25;;;;;;;;;;4957696;28;20090;-81
2022/03/29 11:26:10;;;;;;;14.77;7.80;;;;;;;;;;4962294;28;20126;-79
2022/03/29 11:28:36;;;;;;;10.18;6.13;;;;;;;;;;4962976;28;20107;-81
2022/03/29 11:31:02;;;;;;;11.43;6.53;;;;;;;;;;4963635;28;20174;-78
2022/03/29 11:33:32;;;;;;;8.88;5.90;;;;;;;;;;4959648;28;20046;-79
2022/03/29 11:35:58;;;;;;;10.52;6.20;;;;;;;;;;4960310;28;20398;-79
2022/03/29 11:38:23;;;;;;;10.93;6.72;;;;;;;;;;4948978;28;20038;-79
2022/03/29 11:40:48;;;;;;;11.48;8.60;;;;;;;;;;4964284;28;20039;-83
2022/03/29 11:43:19;;;;;;;11.07;7.50;;;;;;;;;;4949301;28;20042;-81
2022/03/29 11:45:47;;;;;;;13.90;8.25;;;;;;;;;;4947746;28;20030;-82
2022/03/29 11:48:14;;;;;;;11.70;7.10;;;;;;;;;;4946851;28;20047;-79
2022/03/29 11:50:48;;;;;;;;;;;;;;;;;;4949427;28;20034;-81
2022/03/29 11:53:15;;;;;;;9.38;6.53;;;;;;;;;;4948286;28;20052;-81
2022/03/29 11:55:40;;;;;;;16.70;7.73;;;;;;;;;;4962498;28;20558;-82
2022/03/29 11:58:24;;;;;;;14.30;8.90;;;;;;;;;;4950784;28;20045;-82
2022/03/29 12:00:50;;;;;;;15.90;8.32;;;;;;;;;;4960556;28;20035;-80
2022/03/29 12:03:39;;;;;;;12.32;7.57;;;;;;;;;;4947563;28;20038;-81
2022/03/29 12:06:14;;;;;;;10.25;7.43;;;;;;;;;;4949937;28;20952;-81
2022/03/29 12:08:57;;;;;;;12.85;8.45;;;;;;;;;;4968183;28;20390;-81
2022/03/29 12:11:25;;;;;;;12.05;8.80;;;;;;;;;;4957121;28;20101;-81
2022/03/29 12:14:15;;;;;;;17.08;9.57;;;;;;;;;;4960051;28;20060;-80
2022/03/29 12:16:42;;;;;;;14.07;8.75;;;;;;;;;;4944742;28;20793;-81
2022/03/29 12:19:27;;;;;;;13.38;8.63;;;;;;;;;;4949971;28;21192;-77
2022/03/29 12:21:56;;;;;;;13.98;8.38;;;;;;;;;;4945088;28;20094;-81
2022/03/29 12:24:22;;;;;;;16.50;8.68;;;;;;;;;;4945374;28;20053;-81
2022/03/29 12:26:49;;;;;;;16.38;9.45;;;;;;;;;;4958575;28;20034;-82
2022/03/29 12:29:20;;;;;;;13.90;8.52;;;;;;;;;;4945564;28;20109;-84
2022/03/29 12:31:46;;;;;;;12.27;8.80;;;;;;;;;;4944677;28;20045;-82
2022/03/29 12:34:13;;;;;;;14.93;8.55;;;;;;;;;;4963919;28;20050;-81
2022/03/29 12:36:40;;;;;;;15.18;8.20;;;;;;;;;;4965027;28;20042;-81
2022/03/29 12:39:08;;;;;;;15.02;9.10;;;;;;;;;;4962000;28;20035;-83
2022/03/29 12:41:52;;;;;;;14.68;8.77;;;;;;;;;;4962524;28;20494;-81
2022/03/29 12:44:29;;;;;;;14.65;8.95;;;;;;;;;;4965031;28;20046;-85
2022/03/29 12:46:55;;;;;;;16.20;9.45;;;;;;;;;;4975142;28;20043;-84
2022/03/29 12:49:21;;;;;;;14.82;8.65;;;;;;;;;;4965144;28;20039;-82
2022/03/29 12:51:53;;;;;;;12.82;8.48;;;;;;;;;;4948674;28;20042;-80
2022/03/29 12:54:18;;;;;;;13.50;8.13;;;;;;;;;;4972686;28;20513;-80
2022/03/29 12:56:45;;;;;;;13.30;8.32;;;;;;;;;;4947997;28;20066;-80
2022/03/29 12:59:26;;;;;;;13.67;8.40;;;;;;;;;;4957883;28;20105;-81
2022/03/29 13:01:51;;;;;;;13.13;7.88;;;;;;;;;;4972668;28;20043;-83
2022/03/29 13:04:16;;;;;;;12.88;7.75;;;;;;;;;;4948888;28;20050;-81
2022/03/29 13:06:43;;;;;;;14.23;7.65;;;;;;;;;;4958672;28;20035;-81
2022/03/29 13:09:13;;;;;;;14.87;8.40;;;;;;;;;;4943829;28;20049;-82
2022/03/29 13:11:39;;;;;;;13.85;8.15;;;;;;;;;;4937756;28;20758;-82
2022/03/29 13:14:06;;;;;;;13.07;8.38;;;;;;;;;;4946627;28;20074;-83
2022/03/29 13:16:31;;;;;;;15.53;8.47;;;;;;;;;;4959588;28;20043;-81
2022/03/29 13:18:56;;;;;;;15.93;8.02;;;;;;;;;;4946065;28;20041;-82
2022/03/29 13:21:30;;;;;;;14.95;7.40;;;;;;;;;;4946895;28;20118;-82
2022/03/29 13:24:04;;;;;;;14.18;7.60;;;;;;;;;;4959369;28;20050;-81
2022/03/29 13:26:30;;;;;;;12.70;7.75;;;;;;;;;;4976524;28;20478;-81
2022/03/29 13:28:57;;;;;;;13.88;7.63;;;;;;;;;;4944719;28;20544;-82
2022/03/29 13:31:27;;;;;;;12.75;7.47;;;;;;;;;;4963561;28;20031;-80
2022/03/29 13:33:54;;;;;;;14.93;8.43;;;;;;;;;;4942834;28;20126;-82
2022/03/29 13:36:21;;;;;;;11.30;6.80;;;;;;;;;;4955294;28;20064;-81
2022/03/29 13:38:48;;;;;;;12.38;7.03;;;;;;;;;;4960271;28;20426;-81
2022/03/29 13:41:14;;;;;;;13.55;7.30;;;;;;;;;;4946913;28;20093;-80
2022/03/29 13:43:41;;;;;;;14.85;6.93;;;;;;;;;;4959253;28;20125;-81
2022/03/29 13:46:07;;;;;;;13.85;6.80;;;;;;;;;;4943823;28;20508;-79
2022/03/29 13:48:35;;;;;;;14.15;6.38;;;;;;;;;;4964116;28;20050;-79
2022/03/29 13:51:04;;;;;;;;;;;;;;;;;;4959763;28;20275;-81
2022/03/29 13:53:30;;;;;;;10.70;6.30;;;;;;;;;;4952894;28;19922;-80
2022/03/29 13:55:56;;;;;;;15.75;7.72;;;;;;;;;;4942117;28;20122;-81
2022/03/29 13:58:21;;;;;;;16.75;7.53;;;;;;;;;;4942524;28;20481;-79
2022/03/29 14:00:48;;;;;;;13.20;6.78;;;;;;;;;;4961380;28;20069;-82
2022/03/29 14:03:14;;;;;;;13.38;6.85;;;;;;;;;;4945438;28;20066;-79
2022/03/29 14:05:40;;;;;;;12.80;6.10;;;;;;;;;;4959208;28;20054;-80
2022/03/29 14:08:06;;;;;;;13.85;6.38;;;;;;;;;;4954792;28;20054;-81
2022/03/29 14:10:32;;;;;;;14.25;6.40;;;;;;;;;;4953450;28;20062;-82
2022/03/29 14:13:02;;;;;;;9.70;4.60;;;;;;;;;;4962151;28;20058;-82
2022/03/29 14:15:28;;;;;;;7.97;4.90;;;;;;;;;;4944137;28;20031;-80
2022/03/29 14:17:54;;;;;;;11.60;5.20;;;;;;;;;;4963817;28;20041;-80
2022/03/29 14:20:20;;;;;;;10.88;5.45;;;;;;;;;;4946721;28;20073;-80
2022/03/29 14:22:45;;;;;;;8.18;4.88;;;;;;;;;;4960691;28;20064;-80
2022/03/29 14:25:11;;;;;;;12.95;5.40;;;;;;;;;;4961205;28;20109;-80
2022/03/29 14:27:37;;;;;;;10.30;4.70;;;;;;;;;;4954325;28;20054;-79
2022/03/29 14:30:06;;;;;;;8.70;4.40;;;;;;;;;;4961927;28;20070;-80
2022/03/29 14:32:32;;;;;;;8.93;4.35;;;;;;;;;;4947367;28;20780;-79